Terminal Aerodrome Forecast
Issued by NWS

Home | Current Version | Previous Version | Text Only | Print | Product List | Glossary On
Versions: 1 2 3 4 5 6 7 8 9 10 11 12 13 14 15 16 17 18 19 20 21 22 23 24 25 26
000
FTUS43 KFGF 260520
TAFTVF
TAF
KTVF 260520Z 2606/2706 33005KT 6SM -SN BKN050
     FM260700 32005KT 5SM -SN BKN020
      TEMPO 2607/2609 2SM -SN OVC010
     FM260900 32005KT P6SM BKN020
     FM261100 32006KT P6SM BKN015
     FM261200 32006KT P6SM BKN045
     FM261400 31006KT P6SM SCT130=

USA.gov is the U.S. government's official web portal to all federal, state and local government web resources and services.